sensor_id;sensor_type;location;lat;lon;timestamp;P1;durP1;ratioP1;P2;durP2;ratioP2
1412;SDS011;701;52.526;13.408;2023-07-20T00:00:50;8.93;;;3.08;;
1412;SDS011;701;52.526;13.408;2023-07-20T00:03:18;5.95;;;3.13;;
1412;SDS011;701;52.526;13.408;2023-07-20T00:05:50;6.25;;;3.03;;
1412;SDS011;701;52.526;13.408;2023-07-20T00:08:17;7.23;;;2.97;;
1412;SDS011;701;52.526;13.408;2023-07-20T00:10:43;6.57;;;3.20;;
1412;SDS011;701;52.526;13.408;2023-07-20T00:13:10;6.78;;;3.30;;
1412;SDS011;701;52.526;13.408;2023-07-20T00:15:37;7.95;;;3.40;;
1412;SDS011;701;52.526;13.408;2023-07-20T00:18:03;8.20;;;3.17;;
1412;SDS011;701;52.526;13.408;2023-07-20T00:20:29;7.28;;;3.28;;
1412;SDS011;701;52.526;13.408;2023-07-20T00:22:55;7.10;;;3.13;;
1412;SDS011;701;52.526;13.408;2023-07-20T00:25:22;7.93;;;3.10;;
1412;SDS011;701;52.526;13.408;2023-07-20T00:27:49;6.23;;;3.20;;
1412;SDS011;701;52.526;13.408;2023-07-20T00:30:15;7.43;;;3.20;;
1412;SDS011;701;52.526;13.408;2023-07-20T00:32:42;7.43;;;2.92;;
1412;SDS011;701;52.526;13.408;2023-07-20T00:35:08;7.18;;;3.40;;
1412;SDS011;701;52.526;13.408;2023-07-20T00:37:34;8.63;;;3.45;;
1412;SDS011;701;52.526;13.408;2023-07-20T00:40:00;7.03;;;3.30;;
1412;SDS011;701;52.526;13.408;2023-07-20T00:42:28;7.25;;;3.35;;
1412;SDS011;701;52.526;13.408;2023-07-20T00:44:54;8.50;;;3.60;;
1412;SDS011;701;52.526;13.408;2023-07-20T00:47:21;7.33;;;3.33;;
1412;SDS011;701;52.526;13.408;2023-07-20T01:35:00;7.03;;;3.47;;
1412;SDS011;701;52.526;13.408;2023-07-20T01:37:27;6.87;;;3.17;;
1412;SDS011;701;52.526;13.408;2023-07-20T01:39:55;7.45;;;3.60;;
1412;SDS011;701;52.526;13.408;2023-07-20T01:42:22;6.20;;;3.42;;
1412;SDS011;701;52.526;13.408;2023-07-20T01:44:52;7.45;;;3.72;;
1412;SDS011;701;52.526;13.408;2023-07-20T01:47:18;7.07;;;3.35;;
1412;SDS011;701;52.526;13.408;2023-07-20T01:49:44;9.20;;;3.90;;
1412;SDS011;701;52.526;13.408;2023-07-20T01:52:10;7.20;;;3.50;;
1412;SDS011;701;52.526;13.408;2023-07-20T01:54:36;7.63;;;3.53;;
1412;SDS011;701;52.526;13.408;2023-07-20T01:57:02;7.20;;;3.37;;
1412;SDS011;701;52.526;13.408;2023-07-20T01:59:28;6.32;;;3.13;;
1412;SDS011;701;52.526;13.408;2023-07-20T02:01:54;7.13;;;3.33;;
1412;SDS011;701;52.526;13.408;2023-07-20T02:04:19;6.10;;;3.45;;
1412;SDS011;701;52.526;13.408;2023-07-20T02:06:45;6.85;;;3.53;;
1412;SDS011;701;52.526;13.408;2023-07-20T02:09:11;13.87;;;3.20;;
1412;SDS011;701;52.526;13.408;2023-07-20T02:11:37;20.10;;;3.70;;
1412;SDS011;701;52.526;13.408;2023-07-20T02:14:03;7.63;;;3.40;;
1412;SDS011;701;52.526;13.408;2023-07-20T02:16:28;8.07;;;3.40;;
1412;SDS011;701;52.526;13.408;2023-07-20T02:18:56;8.05;;;3.80;;
1412;SDS011;701;52.526;13.408;2023-07-20T02:21:22;8.33;;;3.67;;
1412;SDS011;701;52.526;13.408;2023-07-20T02:23:48;8.40;;;3.50;;
1412;SDS011;701;52.526;13.408;2023-07-20T02:26:14;8.07;;;4.27;;
1412;SDS011;701;52.526;13.408;2023-07-20T02:28:40;7.88;;;4.20;;
1412;SDS011;701;52.526;13.408;2023-07-20T02:31:06;8.20;;;3.67;;
1412;SDS011;701;52.526;13.408;2023-07-20T02:33:32;7.13;;;3.70;;
1412;SDS011;701;52.526;13.408;2023-07-20T02:35:58;9.33;;;4.70;;
1412;SDS011;701;52.526;13.408;2023-07-20T02:38:24;9.52;;;4.50;;
1412;SDS011;701;52.526;13.408;2023-07-20T02:40:50;8.63;;;4.70;;
1412;SDS011;701;52.526;13.408;2023-07-20T02:43:16;14.17;;;5.17;;
1412;SDS011;701;52.526;13.408;2023-07-20T02:45:43;11.13;;;5.47;;
1412;SDS011;701;52.526;13.408;2023-07-20T02:48:09;11.05;;;5.68;;
1412;SDS011;701;52.526;13.408;2023-07-20T02:50:35;10.00;;;5.18;;
1412;SDS011;701;52.526;13.408;2023-07-20T02:53:01;10.33;;;5.60;;
1412;SDS011;701;52.526;13.408;2023-07-20T02:55:27;10.38;;;5.65;;
1412;SDS011;701;52.526;13.408;2023-07-20T02:57:53;12.30;;;6.47;;
1412;SDS011;701;52.526;13.408;2023-07-20T03:00:19;8.83;;;5.73;;
1412;SDS011;701;52.526;13.408;2023-07-20T03:02:45;9.93;;;5.07;;
1412;SDS011;701;52.526;13.408;2023-07-20T03:05:18;9.65;;;6.20;;
1412;SDS011;701;52.526;13.408;2023-07-20T03:07:43;10.07;;;5.40;;
1412;SDS011;701;52.526;13.408;2023-07-20T03:10:09;10.20;;;5.50;;
1412;SDS011;701;52.526;13.408;2023-07-20T03:12:35;11.27;;;5.97;;
1412;SDS011;701;52.526;13.408;2023-07-20T03:15:02;8.10;;;5.15;;
1412;SDS011;701;52.526;13.408;2023-07-20T03:17:28;14.90;;;6.00;;
1412;SDS011;701;52.526;13.408;2023-07-20T03:19:54;11.52;;;5.78;;
1412;SDS011;701;52.526;13.408;2023-07-20T03:22:21;14.38;;;5.50;;
1412;SDS011;701;52.526;13.408;2023-07-20T03:24:47;10.55;;;5.80;;
1412;SDS011;701;52.526;13.408;2023-07-20T03:27:13;9.70;;;5.70;;
1412;SDS011;701;52.526;13.408;2023-07-20T03:29:39;8.77;;;5.43;;
1412;SDS011;701;52.526;13.408;2023-07-20T03:32:05;11.82;;;5.63;;
1412;SDS011;701;52.526;13.408;2023-07-20T03:34:31;8.68;;;5.63;;
1412;SDS011;701;52.526;13.408;2023-07-20T03:37:00;8.70;;;5.70;;
1412;SDS011;701;52.526;13.408;2023-07-20T03:39:26;9.05;;;5.53;;
1412;SDS011;701;52.526;13.408;2023-07-20T03:41:53;9.15;;;6.05;;
1412;SDS011;701;52.526;13.408;2023-07-20T03:44:19;10.25;;;6.15;;
1412;SDS011;701;52.526;13.408;2023-07-20T03:46:44;10.27;;;5.80;;
1412;SDS011;701;52.526;13.408;2023-07-20T03:49:10;10.55;;;6.50;;
1412;SDS011;701;52.526;13.408;2023-07-20T03:51:36;10.83;;;5.33;;
1412;SDS011;701;52.526;13.408;2023-07-20T03:54:02;9.98;;;5.80;;
1412;SDS011;701;52.526;13.408;2023-07-20T03:56:28;10.27;;;5.28;;
1412;SDS011;701;52.526;13.408;2023-07-20T03:58:53;9.23;;;5.10;;
1412;SDS011;701;52.526;13.408;2023-07-20T04:01:19;10.63;;;5.38;;
1412;SDS011;701;52.526;13.408;2023-07-20T04:03:45;9.93;;;5.20;;
1412;SDS011;701;52.526;13.408;2023-07-20T04:06:11;8.82;;;5.15;;
1412;SDS011;701;52.526;13.408;2023-07-20T04:08:37;10.73;;;5.27;;
1412;SDS011;701;52.526;13.408;2023-07-20T04:11:03;11.30;;;5.35;;
1412;SDS011;701;52.526;13.408;2023-07-20T04:13:29;9.93;;;5.43;;
1412;SDS011;701;52.526;13.408;2023-07-20T04:15:58;11.18;;;5.07;;
1412;SDS011;701;52.526;13.408;2023-07-20T04:18:24;9.07;;;5.23;;
1412;SDS011;701;52.526;13.408;2023-07-20T04:20:50;10.18;;;5.82;;
1412;SDS011;701;52.526;13.408;2023-07-20T04:23:16;11.05;;;5.60;;
1412;SDS011;701;52.526;13.408;2023-07-20T04:25:42;9.73;;;5.33;;
1412;SDS011;701;52.526;13.408;2023-07-20T04:28:11;10.18;;;5.43;;
1412;SDS011;701;52.526;13.408;2023-07-20T04:30:40;10.27;;;5.07;;
1412;SDS011;701;52.526;13.408;2023-07-20T04:33:07;9.93;;;5.15;;
1412;SDS011;701;52.526;13.408;2023-07-20T04:38:13;10.90;;;5.95;;
1412;SDS011;701;52.526;13.408;2023-07-20T04:40:46;10.05;;;5.20;;
1412;SDS011;701;52.526;13.408;2023-07-20T04:43:15;9.30;;;5.53;;
1412;SDS011;701;52.526;13.408;2023-07-20T04:45:41;8.30;;;5.20;;
1412;SDS011;701;52.526;13.408;2023-07-20T04:48:11;8.70;;;5.47;;
1412;SDS011;701;52.526;13.408;2023-07-20T04:50:44;9.38;;;5.38;;
1412;SDS011;701;52.526;13.408;2023-07-20T04:53:11;9.35;;;5.57;;
1412;SDS011;701;52.526;13.408;2023-07-20T04:55:39;9.45;;;5.10;;
1412;SDS011;701;52.526;13.408;2023-07-20T04:58:06;9.30;;;5.30;;
1412;SDS011;701;52.526;13.408;2023-07-20T05:00:33;11.70;;;6.10;;
1412;SDS011;701;52.526;13.408;2023-07-20T05:02:59;9.05;;;5.63;;
1412;SDS011;701;52.526;13.408;2023-07-20T05:05:25;9.27;;;5.45;;
1412;SDS011;701;52.526;13.408;2023-07-20T05:07:51;8.27;;;4.73;;
1412;SDS011;701;52.526;13.408;2023-07-20T05:10:17;8.40;;;4.53;;
1412;SDS011;701;52.526;13.408;2023-07-20T05:12:43;8.30;;;4.68;;
1412;SDS011;701;52.526;13.408;2023-07-20T05:15:09;8.97;;;4.13;;
1412;SDS011;701;52.526;13.408;2023-07-20T05:17:37;7.18;;;3.92;;
1412;SDS011;701;52.526;13.408;2023-07-20T05:20:03;9.60;;;4.18;;
1412;SDS011;701;52.526;13.408;2023-07-20T05:22:30;8.00;;;4.20;;
1412;SDS011;701;52.526;13.408;2023-07-20T05:24:56;8.40;;;4.45;;
1412;SDS011;701;52.526;13.408;2023-07-20T05:27:21;7.40;;;4.18;;
1412;SDS011;701;52.526;13.408;2023-07-20T05:29:47;8.90;;;3.93;;
1412;SDS011;701;52.526;13.408;2023-07-20T05:32:13;8.15;;;3.90;;
1412;SDS011;701;52.526;13.408;2023-07-20T05:34:39;8.00;;;4.00;;
1412;SDS011;701;52.526;13.408;2023-07-20T05:37:05;8.05;;;4.13;;
1412;SDS011;701;52.526;13.408;2023-07-20T05:39:32;7.20;;;3.80;;
1412;SDS011;701;52.526;13.408;2023-07-20T05:41:58;7.80;;;3.90;;
1412;SDS011;701;52.526;13.408;2023-07-20T05:44:24;7.27;;;3.93;;
1412;SDS011;701;52.526;13.408;2023-07-20T05:46:49;6.88;;;3.97;;
1412;SDS011;701;52.526;13.408;2023-07-20T05:49:15;8.83;;;4.03;;
1412;SDS011;701;52.526;13.408;2023-07-20T05:51:41;8.90;;;4.80;;
1412;SDS011;701;52.526;13.408;2023-07-20T05:54:07;9.48;;;4.00;;
1412;SDS011;701;52.526;13.408;2023-07-20T05:56:33;8.25;;;4.10;;
1412;SDS011;701;52.526;13.408;2023-07-20T05:58:59;6.73;;;3.57;;
1412;SDS011;701;52.526;13.408;2023-07-20T06:01:24;8.50;;;3.83;;
1412;SDS011;701;52.526;13.408;2023-07-20T06:03:52;9.30;;;4.43;;
1412;SDS011;701;52.526;13.408;2023-07-20T06:06:18;7.28;;;3.80;;
1412;SDS011;701;52.526;13.408;2023-07-20T06:08:44;9.27;;;3.95;;
1412;SDS011;701;52.526;13.408;2023-07-20T06:11:10;8.23;;;3.65;;
1412;SDS011;701;52.526;13.408;2023-07-20T06:13:36;6.68;;;3.78;;
1412;SDS011;701;52.526;13.408;2023-07-20T06:16:02;9.00;;;3.90;;
1412;SDS011;701;52.526;13.408;2023-07-20T06:18:28;7.18;;;3.78;;
1412;SDS011;701;52.526;13.408;2023-07-20T06:20:56;8.30;;;4.05;;
1412;SDS011;701;52.526;13.408;2023-07-20T06:23:22;6.53;;;3.83;;
1412;SDS011;701;52.526;13.408;2023-07-20T06:25:48;10.27;;;3.90;;
1412;SDS011;701;52.526;13.408;2023-07-20T06:28:14;7.40;;;3.50;;
1412;SDS011;701;52.526;13.408;2023-07-20T06:30:40;7.90;;;3.47;;
1412;SDS011;701;52.526;13.408;2023-07-20T06:33:06;7.47;;;3.67;;
1412;SDS011;701;52.526;13.408;2023-07-20T06:35:32;6.10;;;3.33;;
1412;SDS011;701;52.526;13.408;2023-07-20T06:37:58;7.00;;;2.80;;
1412;SDS011;701;52.526;13.408;2023-07-20T06:40:25;6.13;;;3.08;;
1412;SDS011;701;52.526;13.408;2023-07-20T06:42:52;7.90;;;2.97;;
1412;SDS011;701;52.526;13.408;2023-07-20T06:45:17;6.57;;;3.03;;
1412;SDS011;701;52.526;13.408;2023-07-20T06:47:43;6.20;;;2.45;;
1412;SDS011;701;52.526;13.408;2023-07-20T06:50:09;5.77;;;2.60;;
1412;SDS011;701;52.526;13.408;2023-07-20T06:52:36;5.25;;;2.35;;
1412;SDS011;701;52.526;13.408;2023-07-20T06:55:02;5.18;;;2.50;;
1412;SDS011;701;52.526;13.408;2023-07-20T06:57:29;8.30;;;2.63;;
1412;SDS011;701;52.526;13.408;2023-07-20T06:59:54;9.10;;;2.33;;
1412;SDS011;701;52.526;13.408;2023-07-20T07:02:20;8.20;;;2.22;;
1412;SDS011;701;52.526;13.408;2023-07-20T07:04:46;7.10;;;1.98;;
1412;SDS011;701;52.526;13.408;2023-07-20T07:07:13;5.03;;;1.40;;
1412;SDS011;701;52.526;13.408;2023-07-20T07:09:40;4.53;;;1.50;;
1412;SDS011;701;52.526;13.408;2023-07-20T07:12:06;5.68;;;1.98;;
1412;SDS011;701;52.526;13.408;2023-07-20T07:14:32;4.55;;;1.90;;
1412;SDS011;701;52.526;13.408;2023-07-20T07:16:58;5.40;;;1.70;;
1412;SDS011;701;52.526;13.408;2023-07-20T07:19:24;6.28;;;2.05;;
1412;SDS011;701;52.526;13.408;2023-07-20T07:21:50;6.97;;;1.40;;
1412;SDS011;701;52.526;13.408;2023-07-20T07:24:16;5.23;;;1.50;;
1412;SDS011;701;52.526;13.408;2023-07-20T07:26:42;4.63;;;1.40;;
1412;SDS011;701;52.526;13.408;2023-07-20T07:29:07;4.50;;;1.52;;
1412;SDS011;701;52.526;13.408;2023-07-20T07:31:34;5.37;;;1.50;;
1412;SDS011;701;52.526;13.408;2023-07-20T07:34:03;4.13;;;1.45;;
1412;SDS011;701;52.526;13.408;2023-07-20T07:36:30;4.53;;;1.25;;
1412;SDS011;701;52.526;13.408;2023-07-20T07:38:57;5.75;;;1.42;;
1412;SDS011;701;52.526;13.408;2023-07-20T07:41:23;3.83;;;1.30;;
1412;SDS011;701;52.526;13.408;2023-07-20T07:43:48;4.30;;;1.60;;
1412;SDS011;701;52.526;13.408;2023-07-20T07:46:14;4.20;;;1.10;;
1412;SDS011;701;52.526;13.408;2023-07-20T07:48:40;5.50;;;1.40;;
1412;SDS011;701;52.526;13.408;2023-07-20T07:51:07;4.57;;;1.40;;
1412;SDS011;701;52.526;13.408;2023-07-20T07:53:32;3.65;;;1.27;;
1412;SDS011;701;52.526;13.408;2023-07-20T07:56:00;5.50;;;1.55;;
1412;SDS011;701;52.526;13.408;2023-07-20T07:58:26;3.37;;;1.23;;
1412;SDS011;701;52.526;13.408;2023-07-20T08:00:51;4.38;;;1.98;;
1412;SDS011;701;52.526;13.408;2023-07-20T08:03:17;4.50;;;1.37;;
1412;SDS011;701;52.526;13.408;2023-07-20T08:05:43;3.67;;;1.25;;
1412;SDS011;701;52.526;13.408;2023-07-20T08:08:09;4.60;;;1.20;;
1412;SDS011;701;52.526;13.408;2023-07-20T08:10:35;3.80;;;1.20;;
1412;SDS011;701;52.526;13.408;2023-07-20T08:13:00;3.53;;;0.90;;
1412;SDS011;701;52.526;13.408;2023-07-20T08:15:26;3.60;;;1.00;;
1412;SDS011;701;52.526;13.408;2023-07-20T08:17:52;3.25;;;1.00;;
1412;SDS011;701;52.526;13.408;2023-07-20T08:20:18;4.10;;;1.00;;
1412;SDS011;701;52.526;13.408;2023-07-20T08:22:44;3.75;;;1.10;;
1412;SDS011;701;52.526;13.408;2023-07-20T08:25:10;3.47;;;1.10;;
1412;SDS011;701;52.526;13.408;2023-07-20T08:27:36;3.90;;;0.90;;
1412;SDS011;701;52.526;13.408;2023-07-20T08:30:02;3.88;;;1.27;;
1412;SDS011;701;52.526;13.408;2023-07-20T08:32:29;3.65;;;1.13;;
1412;SDS011;701;52.526;13.408;2023-07-20T08:34:55;7.63;;;4.63;;
1412;SDS011;701;52.526;13.408;2023-07-20T08:37:21;5.88;;;2.08;;
1412;SDS011;701;52.526;13.408;2023-07-20T08:39:47;3.97;;;0.93;;
1412;SDS011;701;52.526;13.408;2023-07-20T08:42:13;4.50;;;0.80;;
1412;SDS011;701;52.526;13.408;2023-07-20T08:44:41;5.30;;;1.50;;
1412;SDS011;701;52.526;13.408;2023-07-20T08:47:09;3.60;;;1.13;;
1412;SDS011;701;52.526;13.408;2023-07-20T08:49:37;3.97;;;1.50;;
1412;SDS011;701;52.526;13.408;2023-07-20T08:52:05;4.13;;;1.30;;
1412;SDS011;701;52.526;13.408;2023-07-20T08:54:31;8.18;;;4.65;;
1412;SDS011;701;52.526;13.408;2023-07-20T08:57:00;5.57;;;2.90;;
1412;SDS011;701;52.526;13.408;2023-07-20T08:59:28;6.10;;;1.30;;
1412;SDS011;701;52.526;13.408;2023-07-20T09:01:58;4.45;;;2.03;;
1412;SDS011;701;52.526;13.408;2023-07-20T09:04:25;4.53;;;2.27;;
1412;SDS011;701;52.526;13.408;2023-07-20T09:06:51;5.25;;;1.63;;
1412;SDS011;701;52.526;13.408;2023-07-20T09:09:17;7.38;;;1.50;;
1412;SDS011;701;52.526;13.408;2023-07-20T09:11:43;3.40;;;1.37;;
1412;SDS011;701;52.526;13.408;2023-07-20T09:14:12;4.10;;;2.00;;
1412;SDS011;701;52.526;13.408;2023-07-20T09:19:17;4.00;;;1.40;;
1412;SDS011;701;52.526;13.408;2023-07-20T09:21:44;3.83;;;1.20;;
1412;SDS011;701;52.526;13.408;2023-07-20T09:24:11;3.50;;;1.00;;
1412;SDS011;701;52.526;13.408;2023-07-20T09:26:44;4.50;;;1.67;;
1412;SDS011;701;52.526;13.408;2023-07-20T09:29:13;4.00;;;1.20;;
1412;SDS011;701;52.526;13.408;2023-07-20T09:31:39;4.63;;;1.40;;
1412;SDS011;701;52.526;13.408;2023-07-20T09:34:06;4.33;;;1.60;;
1412;SDS011;701;52.526;13.408;2023-07-20T09:36:35;10.18;;;1.50;;
1412;SDS011;701;52.526;13.408;2023-07-20T09:39:02;11.43;;;1.30;;
1412;SDS011;701;52.526;13.408;2023-07-20T09:41:29;7.53;;;0.90;;
1412;SDS011;701;52.526;13.408;2023-07-20T09:44:04;6.47;;;0.70;;
1412;SDS011;701;52.526;13.408;2023-07-20T09:46:40;3.63;;;0.90;;
1412;SDS011;701;52.526;13.408;2023-07-20T09:49:11;4.00;;;1.10;;
1412;SDS011;701;52.526;13.408;2023-07-20T09:51:37;5.00;;;1.10;;
1412;SDS011;701;52.526;13.408;2023-07-20T09:54:03;5.80;;;0.90;;
1412;SDS011;701;52.526;13.408;2023-07-20T09:56:29;3.20;;;0.80;;
1412;SDS011;701;52.526;13.408;2023-07-20T09:58:56;4.53;;;1.47;;
1412;SDS011;701;52.526;13.408;2023-07-20T10:01:22;3.95;;;1.00;;
1412;SDS011;701;52.526;13.408;2023-07-20T10:03:50;3.30;;;0.68;;
1412;SDS011;701;52.526;13.408;2023-07-20T10:06:20;3.30;;;0.85;;
1412;SDS011;701;52.526;13.408;2023-07-20T10:08:49;2.90;;;0.80;;
1412;SDS011;701;52.526;13.408;2023-07-20T10:11:17;7.37;;;0.80;;
1412;SDS011;701;52.526;13.408;2023-07-20T10:13:46;3.47;;;1.02;;
1412;SDS011;701;52.526;13.408;2023-07-20T10:16:22;7.85;;;1.58;;
1412;SDS011;701;52.526;13.408;2023-07-20T10:21:50;4.03;;;1.23;;
1412;SDS011;701;52.526;13.408;2023-07-20T10:24:22;4.00;;;1.07;;
1412;SDS011;701;52.526;13.408;2023-07-20T10:26:49;5.28;;;0.88;;
1412;SDS011;701;52.526;13.408;2023-07-20T10:29:16;3.35;;;0.80;;
1412;SDS011;701;52.526;13.408;2023-07-20T10:31:42;3.60;;;0.90;;
1412;SDS011;701;52.526;13.408;2023-07-20T10:34:08;3.42;;;1.10;;
1412;SDS011;701;52.526;13.408;2023-07-20T10:36:35;3.13;;;0.83;;
1412;SDS011;701;52.526;13.408;2023-07-20T10:39:27;4.47;;;0.82;;
1412;SDS011;701;52.526;13.408;2023-07-20T10:42:08;3.90;;;1.00;;
1412;SDS011;701;52.526;13.408;2023-07-20T10:44:37;4.70;;;1.08;;
1412;SDS011;701;52.526;13.408;2023-07-20T10:47:11;3.85;;;1.23;;
1412;SDS011;701;52.526;13.408;2023-07-20T10:50:20;5.27;;;1.00;;
1412;SDS011;701;52.526;13.408;2023-07-20T10:52:36;8.80;;;1.10;;
1412;SDS011;701;52.526;13.408;2023-07-20T10:55:14;5.85;;;1.55;;
1412;SDS011;701;52.526;13.408;2023-07-20T10:57:41;4.45;;;1.30;;
1412;SDS011;701;52.526;13.408;2023-07-20T11:00:13;4.82;;;1.38;;
1412;SDS011;701;52.526;13.408;2023-07-20T11:02:46;4.43;;;1.07;;
1412;SDS011;701;52.526;13.408;2023-07-20T11:05:34;4.75;;;1.20;;
1412;SDS011;701;52.526;13.408;2023-07-20T11:08:07;4.10;;;1.42;;
1412;SDS011;701;52.526;13.408;2023-07-20T11:10:35;4.47;;;1.17;;
1412;SDS011;701;52.526;13.408;2023-07-20T11:13:17;4.53;;;1.55;;
1412;SDS011;701;52.526;13.408;2023-07-20T11:15:47;6.17;;;2.17;;
1412;SDS011;701;52.526;13.408;2023-07-20T11:18:33;7.63;;;1.60;;
1412;SDS011;701;52.526;13.408;2023-07-20T11:21:06;7.05;;;1.35;;
1412;SDS011;701;52.526;13.408;2023-07-20T11:23:34;5.57;;;1.10;;
1412;SDS011;701;52.526;13.408;2023-07-20T11:26:04;6.60;;;1.20;;
1412;SDS011;701;52.526;13.408;2023-07-20T11:28:30;4.00;;;0.87;;
1412;SDS011;701;52.526;13.408;2023-07-20T11:30:55;4.75;;;1.00;;
1412;SDS011;701;52.526;13.408;2023-07-20T11:33:21;5.43;;;1.17;;
1412;SDS011;701;52.526;13.408;2023-07-20T11:35:48;4.28;;;1.10;;
1412;SDS011;701;52.526;13.408;2023-07-20T11:38:16;5.70;;;1.00;;
1412;SDS011;701;52.526;13.408;2023-07-20T11:40:45;3.60;;;0.80;;
1412;SDS011;701;52.526;13.408;2023-07-20T11:43:14;4.22;;;1.23;;
1412;SDS011;701;52.526;13.408;2023-07-20T11:45:40;5.57;;;1.00;;
1412;SDS011;701;52.526;13.408;2023-07-20T11:48:06;3.50;;;0.90;;
1412;SDS011;701;52.526;13.408;2023-07-20T11:50:32;4.63;;;1.10;;
1412;SDS011;701;52.526;13.408;2023-07-20T11:53:03;6.38;;;1.25;;
1412;SDS011;701;52.526;13.408;2023-07-20T11:55:28;3.67;;;1.27;;
1412;SDS011;701;52.526;13.408;2023-07-20T11:58:01;4.33;;;1.37;;
1412;SDS011;701;52.526;13.408;2023-07-20T12:00:31;3.95;;;1.05;;
1412;SDS011;701;52.526;13.408;2023-07-20T12:03:00;3.72;;;1.10;;
1412;SDS011;701;52.526;13.408;2023-07-20T12:05:26;5.72;;;1.10;;
1412;SDS011;701;52.526;13.408;2023-07-20T12:07:52;3.20;;;0.70;;
1412;SDS011;701;52.526;13.408;2023-07-20T12:10:25;3.05;;;0.60;;
1412;SDS011;701;52.526;13.408;2023-07-20T12:12:53;4.60;;;0.68;;
1412;SDS011;701;52.526;13.408;2023-07-20T12:15:23;3.88;;;0.93;;
1412;SDS011;701;52.526;13.408;2023-07-20T12:17:58;3.07;;;0.80;;
1412;SDS011;701;52.526;13.408;2023-07-20T12:20:28;4.53;;;0.73;;
1412;SDS011;701;52.526;13.408;2023-07-20T12:22:59;3.33;;;0.60;;
1412;SDS011;701;52.526;13.408;2023-07-20T12:25:59;5.03;;;0.90;;
1412;SDS011;701;52.526;13.408;2023-07-20T12:28:20;3.67;;;0.80;;
1412;SDS011;701;52.526;13.408;2023-07-20T12:30:46;4.70;;;0.60;;
1412;SDS011;701;52.526;13.408;2023-07-20T12:33:21;3.42;;;0.70;;
1412;SDS011;701;52.526;13.408;2023-07-20T12:35:48;3.10;;;0.77;;
1412;SDS011;701;52.526;13.408;2023-07-20T12:38:15;4.57;;;0.73;;
1412;SDS011;701;52.526;13.408;2023-07-20T12:40:41;5.53;;;0.80;;
1412;SDS011;701;52.526;13.408;2023-07-20T12:43:07;4.20;;;0.80;;
1412;SDS011;701;52.526;13.408;2023-07-20T12:45:33;4.90;;;0.80;;
1412;SDS011;701;52.526;13.408;2023-07-20T12:47:59;4.15;;;0.82;;
1412;SDS011;701;52.526;13.408;2023-07-20T12:50:25;3.47;;;0.90;;
1412;SDS011;701;52.526;13.408;2023-07-20T12:52:52;2.80;;;0.70;;
1412;SDS011;701;52.526;13.408;2023-07-20T12:55:18;3.58;;;0.85;;
1412;SDS011;701;52.526;13.408;2023-07-20T12:57:45;3.60;;;0.70;;
1412;SDS011;701;52.526;13.408;2023-07-20T13:00:11;3.45;;;0.68;;
1412;SDS011;701;52.526;13.408;2023-07-20T13:02:39;4.95;;;0.80;;
1412;SDS011;701;52.526;13.408;2023-07-20T13:05:05;3.70;;;1.00;;
1412;SDS011;701;52.526;13.408;2023-07-20T13:07:31;6.23;;;0.93;;
1412;SDS011;701;52.526;13.408;2023-07-20T13:10:02;3.65;;;0.82;;
1412;SDS011;701;52.526;13.408;2023-07-20T13:12:29;3.83;;;1.23;;
1412;SDS011;701;52.526;13.408;2023-07-20T13:14:57;3.45;;;0.60;;
1412;SDS011;701;52.526;13.408;2023-07-20T13:17:26;4.78;;;0.90;;
1412;SDS011;701;52.526;13.408;2023-07-20T13:19:52;3.43;;;1.00;;
1412;SDS011;701;52.526;13.408;2023-07-20T13:22:19;6.32;;;1.00;;
1412;SDS011;701;52.526;13.408;2023-07-20T13:24:45;3.63;;;0.80;;
1412;SDS011;701;52.526;13.408;2023-07-20T13:27:19;3.93;;;0.60;;
1412;SDS011;701;52.526;13.408;2023-07-20T13:29:45;3.75;;;0.82;;
1412;SDS011;701;52.526;13.408;2023-07-20T13:32:13;3.20;;;0.80;;
1412;SDS011;701;52.526;13.408;2023-07-20T13:34:46;10.35;;;4.30;;
1412;SDS011;701;52.526;13.408;2023-07-20T13:37:12;3.97;;;0.80;;
1412;SDS011;701;52.526;13.408;2023-07-20T13:39:38;4.68;;;0.88;;
1412;SDS011;701;52.526;13.408;2023-07-20T13:42:04;2.78;;;0.60;;
1412;SDS011;701;52.526;13.408;2023-07-20T13:44:31;4.03;;;0.90;;
1412;SDS011;701;52.526;13.408;2023-07-20T13:46:57;3.23;;;0.70;;
1412;SDS011;701;52.526;13.408;2023-07-20T13:49:23;3.33;;;0.77;;
1412;SDS011;701;52.526;13.408;2023-07-20T13:51:49;2.90;;;0.70;;
1412;SDS011;701;52.526;13.408;2023-07-20T13:54:15;4.23;;;0.60;;
1412;SDS011;701;52.526;13.408;2023-07-20T13:56:40;2.92;;;0.63;;
1412;SDS011;701;52.526;13.408;2023-07-20T13:59:06;3.93;;;0.60;;
1412;SDS011;701;52.526;13.408;2023-07-20T14:01:32;3.65;;;0.90;;
1412;SDS011;701;52.526;13.408;2023-07-20T14:04:00;3.45;;;0.90;;
1412;SDS011;701;52.526;13.408;2023-07-20T14:06:30;13.77;;;1.02;;
1412;SDS011;701;52.526;13.408;2023-07-20T14:08:57;3.47;;;0.80;;
1412;SDS011;701;52.526;13.408;2023-07-20T14:11:23;3.22;;;0.80;;
1412;SDS011;701;52.526;13.408;2023-07-20T14:13:50;3.50;;;0.82;;
1412;SDS011;701;52.526;13.408;2023-07-20T14:16:18;3.05;;;0.77;;
1412;SDS011;701;52.526;13.408;2023-07-20T14:18:44;5.22;;;0.90;;
1412;SDS011;701;52.526;13.408;2023-07-20T14:21:12;3.00;;;0.70;;
1412;SDS011;701;52.526;13.408;2023-07-20T14:23:38;3.53;;;0.77;;
1412;SDS011;701;52.526;13.408;2023-07-20T14:26:03;3.92;;;0.75;;
1412;SDS011;701;52.526;13.408;2023-07-20T14:28:34;3.13;;;0.60;;
1412;SDS011;701;52.526;13.408;2023-07-20T14:31:00;4.53;;;0.80;;
1412;SDS011;701;52.526;13.408;2023-07-20T14:33:26;3.25;;;0.80;;
1412;SDS011;701;52.526;13.408;2023-07-20T14:35:51;3.70;;;1.10;;
1412;SDS011;701;52.526;13.408;2023-07-20T14:38:17;4.47;;;0.80;;
1412;SDS011;701;52.526;13.408;2023-07-20T14:40:43;3.50;;;0.90;;
1412;SDS011;701;52.526;13.408;2023-07-20T14:43:09;3.10;;;0.77;;
1412;SDS011;701;52.526;13.408;2023-07-20T14:45:35;4.45;;;1.00;;
1412;SDS011;701;52.526;13.408;2023-07-20T14:48:03;5.40;;;1.27;;
1412;SDS011;701;52.526;13.408;2023-07-20T14:50:29;3.45;;;1.00;;
1412;SDS011;701;52.526;13.408;2023-07-20T14:52:55;5.82;;;1.08;;
1412;SDS011;701;52.526;13.408;2023-07-20T14:55:20;3.90;;;1.20;;
1412;SDS011;701;52.526;13.408;2023-07-20T14:57:47;4.50;;;1.27;;
1412;SDS011;701;52.526;13.408;2023-07-20T15:00:14;3.35;;;0.98;;
1412;SDS011;701;52.526;13.408;2023-07-20T15:02:40;3.72;;;0.88;;
1412;SDS011;701;52.526;13.408;2023-07-20T15:05:09;3.88;;;1.10;;
1412;SDS011;701;52.526;13.408;2023-07-20T15:07:36;5.00;;;0.90;;
1412;SDS011;701;52.526;13.408;2023-07-20T15:10:03;3.63;;;1.13;;
1412;SDS011;701;52.526;13.408;2023-07-20T15:12:32;4.35;;;1.50;;
1412;SDS011;701;52.526;13.408;2023-07-20T15:15:02;3.70;;;1.17;;
1412;SDS011;701;52.526;13.408;2023-07-20T15:17:32;3.25;;;0.93;;
1412;SDS011;701;52.526;13.408;2023-07-20T15:19:58;4.77;;;1.10;;
1412;SDS011;701;52.526;13.408;2023-07-20T15:22:24;3.58;;;0.90;;
1412;SDS011;701;52.526;13.408;2023-07-20T15:24:50;3.38;;;0.90;;
1412;SDS011;701;52.526;13.408;2023-07-20T15:27:16;4.38;;;1.00;;
1412;SDS011;701;52.526;13.408;2023-07-20T15:29:42;4.07;;;1.20;;
1412;SDS011;701;52.526;13.408;2023-07-20T15:32:09;3.27;;;0.77;;
1412;SDS011;701;52.526;13.408;2023-07-20T15:34:35;4.13;;;0.93;;
1412;SDS011;701;52.526;13.408;2023-07-20T15:37:01;14.05;;;6.05;;
1412;SDS011;701;52.526;13.408;2023-07-20T15:39:28;4.78;;;1.40;;
1412;SDS011;701;52.526;13.408;2023-07-20T15:41:54;3.50;;;1.10;;
1412;SDS011;701;52.526;13.408;2023-07-20T15:44:20;4.47;;;0.90;;
1412;SDS011;701;52.526;13.408;2023-07-20T15:46:46;6.13;;;1.10;;
1412;SDS011;701;52.526;13.408;2023-07-20T15:49:13;3.60;;;1.00;;
1412;SDS011;701;52.526;13.408;2023-07-20T15:51:39;3.88;;;1.00;;
1412;SDS011;701;52.526;13.408;2023-07-20T15:54:07;4.95;;;1.00;;
1412;SDS011;701;52.526;13.408;2023-07-20T15:56:35;5.60;;;1.10;;
1412;SDS011;701;52.526;13.408;2023-07-20T15:59:02;3.78;;;1.10;;
1412;SDS011;701;52.526;13.408;2023-07-20T16:01:29;3.37;;;0.83;;
1412;SDS011;701;52.526;13.408;2023-07-20T16:03:56;5.18;;;0.80;;
1412;SDS011;701;52.526;13.408;2023-07-20T16:06:23;4.22;;;1.20;;
1412;SDS011;701;52.526;13.408;2023-07-20T16:08:49;3.40;;;1.10;;